sensor_id;sensor_type;location;lat;lon;timestamp;pressure;altitude;pressure_sealevel;temperature;humidity
25944;BME280;13742;49.306;8.636;2024-01-30T00:00:21;101921.78;;;4.40;90.37
25944;BME280;13742;49.306;8.636;2024-01-30T00:01:21;101922.64;;;4.40;90.38
25944;BME280;13742;49.306;8.636;2024-01-30T00:02:21;101925.91;;;4.40;90.30
25944;BME280;13742;49.306;8.636;2024-01-30T00:03:21;101923.73;;;4.38;90.04
25944;BME280;13742;49.306;8.636;2024-01-30T00:04:21;101923.06;;;4.36;89.98
25944;BME280;13742;49.306;8.636;2024-01-30T00:05:21;101920.98;;;4.35;90.22
25944;BME280;13742;49.306;8.636;2024-01-30T00:06:21;101920.73;;;4.34;90.10
25944;BME280;13742;49.306;8.636;2024-01-30T00:07:21;101924.20;;;4.34;90.08
25944;BME280;13742;49.306;8.636;2024-01-30T00:08:21;101923.20;;;4.32;90.02
25944;BME280;13742;49.306;8.636;2024-01-30T00:09:21;101920.91;;;4.31;89.96
25944;BME280;13742;49.306;8.636;2024-01-30T00:10:21;101922.09;;;4.30;90.04
25944;BME280;13742;49.306;8.636;2024-01-30T00:11:21;101922.63;;;4.30;89.98
25944;BME280;13742;49.306;8.636;2024-01-30T00:12:21;101921.64;;;4.29;90.13
25944;BME280;13742;49.306;8.636;2024-01-30T00:13:21;101920.58;;;4.29;90.14
25944;BME280;13742;49.306;8.636;2024-01-30T00:14:21;101922.73;;;4.27;90.13
25944;BME280;13742;49.306;8.636;2024-01-30T00:15:21;101923.50;;;4.27;89.98
25944;BME280;13742;49.306;8.636;2024-01-30T00:16:22;101926.78;;;4.27;90.13
25944;BME280;13742;49.306;8.636;2024-01-30T00:17:21;101924.61;;;4.25;90.13
25944;BME280;13742;49.306;8.636;2024-01-30T00:18:21;101926.00;;;4.26;90.09
25944;BME280;13742;49.306;8.636;2024-01-30T00:19:21;101926.72;;;4.24;90.25
25944;BME280;13742;49.306;8.636;2024-01-30T00:20:21;101919.70;;;4.24;90.32
25944;BME280;13742;49.306;8.636;2024-01-30T00:21:21;101922.77;;;4.25;90.57
25944;BME280;13742;49.306;8.636;2024-01-30T00:22:21;101923.59;;;4.26;90.49
25944;BME280;13742;49.306;8.636;2024-01-30T00:23:21;101924.28;;;4.26;90.42
25944;BME280;13742;49.306;8.636;2024-01-30T00:24:21;101922.92;;;4.25;90.27
25944;BME280;13742;49.306;8.636;2024-01-30T00:25:21;101923.08;;;4.25;90.34
25944;BME280;13742;49.306;8.636;2024-01-30T00:26:21;101917.48;;;4.24;90.31
25944;BME280;13742;49.306;8.636;2024-01-30T00:27:21;101918.88;;;4.24;90.30
25944;BME280;13742;49.306;8.636;2024-01-30T00:28:21;101918.80;;;4.24;90.35
25944;BME280;13742;49.306;8.636;2024-01-30T00:29:22;101921.98;;;4.24;90.21
25944;BME280;13742;49.306;8.636;2024-01-30T00:30:21;101914.05;;;4.22;90.32
25944;BME280;13742;49.306;8.636;2024-01-30T00:31:21;101915.88;;;4.22;90.23
25944;BME280;13742;49.306;8.636;2024-01-30T00:32:22;101919.63;;;4.21;90.38
25944;BME280;13742;49.306;8.636;2024-01-30T00:33:21;101922.74;;;4.21;90.54
25944;BME280;13742;49.306;8.636;2024-01-30T00:34:21;101921.31;;;4.21;90.25
25944;BME280;13742;49.306;8.636;2024-01-30T00:35:22;101926.14;;;4.22;90.48
25944;BME280;13742;49.306;8.636;2024-01-30T00:36:21;101925.03;;;4.22;90.43
25944;BME280;13742;49.306;8.636;2024-01-30T00:37:21;101926.13;;;4.22;90.43
25944;BME280;13742;49.306;8.636;2024-01-30T00:38:21;101925.11;;;4.20;90.25
25944;BME280;13742;49.306;8.636;2024-01-30T00:39:21;101927.72;;;4.20;90.25
25944;BME280;13742;49.306;8.636;2024-01-30T00:40:21;101926.66;;;4.20;90.29
25944;BME280;13742;49.306;8.636;2024-01-30T00:41:21;101925.71;;;4.20;90.29
25944;BME280;13742;49.306;8.636;2024-01-30T00:42:23;101926.00;;;4.18;90.27
25944;BME280;13742;49.306;8.636;2024-01-30T00:43:21;101925.53;;;4.16;90.33
25944;BME280;13742;49.306;8.636;2024-01-30T00:44:21;101923.72;;;4.14;90.44
25944;BME280;13742;49.306;8.636;2024-01-30T00:45:21;101920.20;;;4.13;90.42
25944;BME280;13742;49.306;8.636;2024-01-30T00:46:21;101919.94;;;4.11;90.64
25944;BME280;13742;49.306;8.636;2024-01-30T00:47:21;101924.96;;;4.11;90.58
25944;BME280;13742;49.306;8.636;2024-01-30T00:48:21;101924.75;;;4.10;90.71
25944;BME280;13742;49.306;8.636;2024-01-30T00:49:21;101924.92;;;4.10;90.71
25944;BME280;13742;49.306;8.636;2024-01-30T00:50:21;101921.92;;;4.09;90.65
25944;BME280;13742;49.306;8.636;2024-01-30T00:51:21;101922.38;;;4.08;90.53
25944;BME280;13742;49.306;8.636;2024-01-30T00:52:21;101924.95;;;4.08;90.69
25944;BME280;13742;49.306;8.636;2024-01-30T00:53:21;101928.33;;;4.06;90.72
25944;BME280;13742;49.306;8.636;2024-01-30T00:54:21;101925.38;;;4.05;90.61
25944;BME280;13742;49.306;8.636;2024-01-30T00:55:21;101928.44;;;4.04;90.71
25944;BME280;13742;49.306;8.636;2024-01-30T00:56:21;101928.56;;;4.05;90.79
25944;BME280;13742;49.306;8.636;2024-01-30T00:57:21;101926.23;;;4.05;90.84
25944;BME280;13742;49.306;8.636;2024-01-30T00:58:21;101926.77;;;4.05;90.92
25944;BME280;13742;49.306;8.636;2024-01-30T00:59:21;101927.09;;;4.04;90.83
25944;BME280;13742;49.306;8.636;2024-01-30T01:00:21;101928.28;;;4.05;90.97
25944;BME280;13742;49.306;8.636;2024-01-30T01:01:21;101926.89;;;4.05;90.74
25944;BME280;13742;49.306;8.636;2024-01-30T01:02:21;101925.97;;;4.03;90.77
25944;BME280;13742;49.306;8.636;2024-01-30T01:03:21;101923.03;;;4.02;90.80
25944;BME280;13742;49.306;8.636;2024-01-30T01:04:21;101924.73;;;4.01;90.76
25944;BME280;13742;49.306;8.636;2024-01-30T01:05:21;101922.16;;;4.01;90.88
25944;BME280;13742;49.306;8.636;2024-01-30T01:06:21;101923.87;;;3.99;90.92
25944;BME280;13742;49.306;8.636;2024-01-30T01:07:21;101930.22;;;4.02;90.96
25944;BME280;13742;49.306;8.636;2024-01-30T01:08:21;101927.44;;;4.02;91.00
25944;BME280;13742;49.306;8.636;2024-01-30T01:09:21;101932.09;;;4.02;90.83
25944;BME280;13742;49.306;8.636;2024-01-30T01:10:21;101930.22;;;4.03;90.78
25944;BME280;13742;49.306;8.636;2024-01-30T01:11:21;101934.39;;;4.03;90.91
25944;BME280;13742;49.306;8.636;2024-01-30T01:12:21;101933.77;;;4.01;90.73
25944;BME280;13742;49.306;8.636;2024-01-30T01:13:21;101933.36;;;4.01;90.82
25944;BME280;13742;49.306;8.636;2024-01-30T01:14:21;101933.36;;;4.01;90.81
25944;BME280;13742;49.306;8.636;2024-01-30T01:15:21;101935.11;;;4.00;90.97
25944;BME280;13742;49.306;8.636;2024-01-30T01:16:21;101937.52;;;4.01;91.00
25944;BME280;13742;49.306;8.636;2024-01-30T01:17:21;101936.17;;;4.00;90.93
25944;BME280;13742;49.306;8.636;2024-01-30T01:18:21;101935.92;;;4.00;90.96
25944;BME280;13742;49.306;8.636;2024-01-30T01:19:21;101936.13;;;3.99;90.85
25944;BME280;13742;49.306;8.636;2024-01-30T01:20:21;101934.86;;;3.99;91.01
25944;BME280;13742;49.306;8.636;2024-01-30T01:21:21;101933.91;;;3.97;90.88
25944;BME280;13742;49.306;8.636;2024-01-30T01:22:21;101934.39;;;3.97;91.06
25944;BME280;13742;49.306;8.636;2024-01-30T01:23:21;101932.63;;;3.96;91.12
25944;BME280;13742;49.306;8.636;2024-01-30T01:24:21;101931.19;;;3.95;91.06
25944;BME280;13742;49.306;8.636;2024-01-30T01:25:21;101932.25;;;3.95;91.05
25944;BME280;13742;49.306;8.636;2024-01-30T01:26:21;101933.71;;;3.93;91.13
25944;BME280;13742;49.306;8.636;2024-01-30T01:27:21;101928.56;;;3.93;91.39
25944;BME280;13742;49.306;8.636;2024-01-30T01:28:21;101927.86;;;3.92;91.42
25944;BME280;13742;49.306;8.636;2024-01-30T01:29:28;101932.47;;;3.91;91.27
25944;BME280;13742;49.306;8.636;2024-01-30T01:30:25;101928.42;;;3.90;91.38
25944;BME280;13742;49.306;8.636;2024-01-30T01:31:24;101927.22;;;3.88;91.55
25944;BME280;13742;49.306;8.636;2024-01-30T01:32:21;101930.08;;;3.89;91.63
25944;BME280;13742;49.306;8.636;2024-01-30T01:33:21;101930.80;;;3.86;91.61
25944;BME280;13742;49.306;8.636;2024-01-30T01:34:21;101931.20;;;3.85;91.75
25944;BME280;13742;49.306;8.636;2024-01-30T01:35:21;101930.88;;;3.85;91.87
25944;BME280;13742;49.306;8.636;2024-01-30T01:36:21;101932.38;;;3.84;91.88
25944;BME280;13742;49.306;8.636;2024-01-30T01:37:22;101933.20;;;3.84;92.04
25944;BME280;13742;49.306;8.636;2024-01-30T01:38:21;101929.52;;;3.83;92.01
25944;BME280;13742;49.306;8.636;2024-01-30T01:39:21;101930.61;;;3.83;92.08
25944;BME280;13742;49.306;8.636;2024-01-30T01:40:22;101929.67;;;3.83;92.18
25944;BME280;13742;49.306;8.636;2024-01-30T01:41:21;101931.30;;;3.83;92.25
25944;BME280;13742;49.306;8.636;2024-01-30T01:42:22;101928.84;;;3.82;92.19
25944;BME280;13742;49.306;8.636;2024-01-30T01:43:21;101930.69;;;3.82;92.27
25944;BME280;13742;49.306;8.636;2024-01-30T01:44:21;101928.18;;;3.80;92.26
25944;BME280;13742;49.306;8.636;2024-01-30T01:45:21;101929.25;;;3.81;92.31
25944;BME280;13742;49.306;8.636;2024-01-30T01:46:21;101927.56;;;3.79;92.16
25944;BME280;13742;49.306;8.636;2024-01-30T01:47:21;101932.98;;;3.78;92.32
25944;BME280;13742;49.306;8.636;2024-01-30T01:48:21;101929.79;;;3.77;92.39
25944;BME280;13742;49.306;8.636;2024-01-30T01:49:22;101929.22;;;3.77;92.53
25944;BME280;13742;49.306;8.636;2024-01-30T01:50:21;101928.64;;;3.76;92.42
25944;BME280;13742;49.306;8.636;2024-01-30T01:51:21;101925.64;;;3.74;92.35
25944;BME280;13742;49.306;8.636;2024-01-30T01:52:21;101927.88;;;3.74;92.36
25944;BME280;13742;49.306;8.636;2024-01-30T01:53:21;101925.02;;;3.72;92.51
25944;BME280;13742;49.306;8.636;2024-01-30T01:54:21;101927.53;;;3.70;92.37
25944;BME280;13742;49.306;8.636;2024-01-30T01:55:26;101926.34;;;3.69;92.36
25944;BME280;13742;49.306;8.636;2024-01-30T01:56:21;101925.88;;;3.67;92.65
25944;BME280;13742;49.306;8.636;2024-01-30T01:57:21;101921.44;;;3.65;92.99
25944;BME280;13742;49.306;8.636;2024-01-30T01:58:21;101922.75;;;3.66;92.92
25944;BME280;13742;49.306;8.636;2024-01-30T01:59:21;101923.40;;;3.65;92.78
25944;BME280;13742;49.306;8.636;2024-01-30T02:00:21;101920.46;;;3.65;92.78
25944;BME280;13742;49.306;8.636;2024-01-30T02:01:21;101919.63;;;3.63;92.64
25944;BME280;13742;49.306;8.636;2024-01-30T02:02:21;101920.90;;;3.63;92.97
25944;BME280;13742;49.306;8.636;2024-01-30T02:03:21;101916.04;;;3.63;92.74
25944;BME280;13742;49.306;8.636;2024-01-30T02:04:21;101916.64;;;3.62;92.74
25944;BME280;13742;49.306;8.636;2024-01-30T02:05:21;101916.84;;;3.62;92.69
25944;BME280;13742;49.306;8.636;2024-01-30T02:06:21;101914.44;;;3.62;92.85
25944;BME280;13742;49.306;8.636;2024-01-30T02:07:21;101911.94;;;3.62;93.07
25944;BME280;13742;49.306;8.636;2024-01-30T02:08:21;101908.19;;;3.62;92.95
25944;BME280;13742;49.306;8.636;2024-01-30T02:09:21;101911.55;;;3.63;93.01
25944;BME280;13742;49.306;8.636;2024-01-30T02:10:21;101911.30;;;3.62;92.95
25944;BME280;13742;49.306;8.636;2024-01-30T02:11:21;101915.39;;;3.63;92.98
25944;BME280;13742;49.306;8.636;2024-01-30T02:12:21;101916.45;;;3.64;93.01
25944;BME280;13742;49.306;8.636;2024-01-30T02:13:21;101914.83;;;3.64;92.84
25944;BME280;13742;49.306;8.636;2024-01-30T02:14:21;101914.13;;;3.64;92.68
25944;BME280;13742;49.306;8.636;2024-01-30T02:15:21;101909.80;;;3.63;92.67
25944;BME280;13742;49.306;8.636;2024-01-30T02:16:21;101912.28;;;3.63;92.72
25944;BME280;13742;49.306;8.636;2024-01-30T02:17:21;101914.34;;;3.60;93.04
25944;BME280;13742;49.306;8.636;2024-01-30T02:18:23;101913.28;;;3.60;92.95
25944;BME280;13742;49.306;8.636;2024-01-30T02:19:21;101916.63;;;3.59;93.02
25944;BME280;13742;49.306;8.636;2024-01-30T02:20:21;101918.06;;;3.60;93.05
25944;BME280;13742;49.306;8.636;2024-01-30T02:21:21;101917.80;;;3.58;93.12
25944;BME280;13742;49.306;8.636;2024-01-30T02:22:21;101919.11;;;3.58;93.02
25944;BME280;13742;49.306;8.636;2024-01-30T02:23:21;101917.47;;;3.58;93.08
25944;BME280;13742;49.306;8.636;2024-01-30T02:24:21;101918.28;;;3.58;93.14
25944;BME280;13742;49.306;8.636;2024-01-30T02:25:29;101916.77;;;3.58;93.18
25944;BME280;13742;49.306;8.636;2024-01-30T02:26:21;101919.41;;;3.57;92.89
25944;BME280;13742;49.306;8.636;2024-01-30T02:27:21;101919.41;;;3.56;92.66
25944;BME280;13742;49.306;8.636;2024-01-30T02:28:21;101917.63;;;3.58;92.96
25944;BME280;13742;49.306;8.636;2024-01-30T02:29:21;101916.11;;;3.57;93.17
25944;BME280;13742;49.306;8.636;2024-01-30T02:30:21;101915.83;;;3.57;93.37
25944;BME280;13742;49.306;8.636;2024-01-30T02:31:21;101917.91;;;3.58;93.24
25944;BME280;13742;49.306;8.636;2024-01-30T02:32:21;101916.56;;;3.56;93.24
25944;BME280;13742;49.306;8.636;2024-01-30T02:33:22;101916.80;;;3.56;93.26
25944;BME280;13742;49.306;8.636;2024-01-30T02:34:21;101917.89;;;3.55;93.47
25944;BME280;13742;49.306;8.636;2024-01-30T02:35:21;101915.59;;;3.54;93.33
25944;BME280;13742;49.306;8.636;2024-01-30T02:36:21;101915.11;;;3.55;93.40
25944;BME280;13742;49.306;8.636;2024-01-30T02:37:21;101915.47;;;3.54;93.49
25944;BME280;13742;49.306;8.636;2024-01-30T02:38:21;101915.72;;;3.54;93.59
25944;BME280;13742;49.306;8.636;2024-01-30T02:39:21;101914.29;;;3.54;93.80
25944;BME280;13742;49.306;8.636;2024-01-30T02:40:21;101917.75;;;3.54;93.65
25944;BME280;13742;49.306;8.636;2024-01-30T02:41:21;101916.44;;;3.52;93.53
25944;BME280;13742;49.306;8.636;2024-01-30T02:42:21;101918.97;;;3.52;93.53
25944;BME280;13742;49.306;8.636;2024-01-30T02:43:21;101917.61;;;3.51;93.54
25944;BME280;13742;49.306;8.636;2024-01-30T02:44:21;101916.30;;;3.50;93.58
25944;BME280;13742;49.306;8.636;2024-01-30T02:45:21;101919.89;;;3.51;93.72
25944;BME280;13742;49.306;8.636;2024-01-30T02:46:21;101917.44;;;3.50;93.75
25944;BME280;13742;49.306;8.636;2024-01-30T02:47:21;101921.47;;;3.48;93.77
25944;BME280;13742;49.306;8.636;2024-01-30T02:48:21;101918.63;;;3.47;93.66
25944;BME280;13742;49.306;8.636;2024-01-30T02:49:21;101918.71;;;3.46;93.60
25944;BME280;13742;49.306;8.636;2024-01-30T02:50:21;101919.02;;;3.48;93.83
25944;BME280;13742;49.306;8.636;2024-01-30T02:51:21;101916.08;;;3.48;93.92
25944;BME280;13742;49.306;8.636;2024-01-30T02:52:21;101916.73;;;3.48;93.86
25944;BME280;13742;49.306;8.636;2024-01-30T02:53:21;101918.08;;;3.48;93.66
25944;BME280;13742;49.306;8.636;2024-01-30T02:54:21;101915.33;;;3.47;93.77
25944;BME280;13742;49.306;8.636;2024-01-30T02:55:21;101920.40;;;3.48;93.78
25944;BME280;13742;49.306;8.636;2024-01-30T02:56:21;101921.23;;;3.45;93.67
25944;BME280;13742;49.306;8.636;2024-01-30T02:57:21;101918.33;;;3.44;93.63
25944;BME280;13742;49.306;8.636;2024-01-30T02:58:21;101920.79;;;3.42;94.00
25944;BME280;13742;49.306;8.636;2024-01-30T02:59:21;101920.55;;;3.41;93.90
25944;BME280;13742;49.306;8.636;2024-01-30T03:00:21;101920.19;;;3.43;93.94
25944;BME280;13742;49.306;8.636;2024-01-30T03:01:21;101920.95;;;3.42;93.88
25944;BME280;13742;49.306;8.636;2024-01-30T03:02:21;101919.97;;;3.42;93.70
25944;BME280;13742;49.306;8.636;2024-01-30T03:03:21;101918.70;;;3.41;93.81
25944;BME280;13742;49.306;8.636;2024-01-30T03:04:21;101915.48;;;3.42;93.73
25944;BME280;13742;49.306;8.636;2024-01-30T03:05:21;101914.42;;;3.42;93.72
25944;BME280;13742;49.306;8.636;2024-01-30T03:06:22;101914.05;;;3.41;94.01
25944;BME280;13742;49.306;8.636;2024-01-30T03:07:21;101911.18;;;3.39;93.90
25944;BME280;13742;49.306;8.636;2024-01-30T03:08:21;101911.61;;;3.38;93.97
25944;BME280;13742;49.306;8.636;2024-01-30T03:09:21;101916.19;;;3.38;94.15
25944;BME280;13742;49.306;8.636;2024-01-30T03:10:21;101913.45;;;3.37;93.98
25944;BME280;13742;49.306;8.636;2024-01-30T03:11:21;101916.27;;;3.37;94.06
25944;BME280;13742;49.306;8.636;2024-01-30T03:12:21;101919.03;;;3.36;93.92
25944;BME280;13742;49.306;8.636;2024-01-30T03:13:21;101918.30;;;3.36;94.17
25944;BME280;13742;49.306;8.636;2024-01-30T03:14:21;101914.70;;;3.35;94.16
25944;BME280;13742;49.306;8.636;2024-01-30T03:15:21;101912.93;;;3.34;94.11
25944;BME280;13742;49.306;8.636;2024-01-30T03:16:21;101913.00;;;3.34;94.15
25944;BME280;13742;49.306;8.636;2024-01-30T03:17:21;101913.92;;;3.32;94.23
25944;BME280;13742;49.306;8.636;2024-01-30T03:18:21;101914.57;;;3.31;94.30
25944;BME280;13742;49.306;8.636;2024-01-30T03:19:21;101918.83;;;3.32;94.53
25944;BME280;13742;49.306;8.636;2024-01-30T03:20:21;101918.38;;;3.31;94.55
25944;BME280;13742;49.306;8.636;2024-01-30T03:21:21;101919.52;;;3.31;94.36
25944;BME280;13742;49.306;8.636;2024-01-30T03:22:21;101917.27;;;3.31;94.32
25944;BME280;13742;49.306;8.636;2024-01-30T03:23:21;101920.63;;;3.32;94.13
25944;BME280;13742;49.306;8.636;2024-01-30T03:24:21;101922.76;;;3.33;94.11
25944;BME280;13742;49.306;8.636;2024-01-30T03:25:21;101918.17;;;3.32;94.17
25944;BME280;13742;49.306;8.636;2024-01-30T03:26:21;101916.91;;;3.32;94.14
25944;BME280;13742;49.306;8.636;2024-01-30T03:27:21;101916.86;;;3.32;94.18
25944;BME280;13742;49.306;8.636;2024-01-30T03:28:21;101921.23;;;3.32;94.24
25944;BME280;13742;49.306;8.636;2024-01-30T03:29:21;101921.72;;;3.32;94.19
25944;BME280;13742;49.306;8.636;2024-01-30T03:30:21;101922.73;;;3.31;94.18
25944;BME280;13742;49.306;8.636;2024-01-30T03:31:21;101917.59;;;3.30;94.31
25944;BME280;13742;49.306;8.636;2024-01-30T03:32:21;101917.53;;;3.30;94.16
25944;BME280;13742;49.306;8.636;2024-01-30T03:33:21;101923.09;;;3.31;94.27
25944;BME280;13742;49.306;8.636;2024-01-30T03:34:21;101922.24;;;3.31;94.17
25944;BME280;13742;49.306;8.636;2024-01-30T03:35:21;101917.98;;;3.28;94.17
25944;BME280;13742;49.306;8.636;2024-01-30T03:36:21;101914.86;;;3.27;94.16
25944;BME280;13742;49.306;8.636;2024-01-30T03:37:21;101916.41;;;3.27;94.20
25944;BME280;13742;49.306;8.636;2024-01-30T03:38:21;101920.27;;;3.26;94.36
25944;BME280;13742;49.306;8.636;2024-01-30T03:39:21;101919.14;;;3.27;94.42
25944;BME280;13742;49.306;8.636;2024-01-30T03:40:21;101916.72;;;3.26;94.34
25944;BME280;13742;49.306;8.636;2024-01-30T03:41:21;101922.77;;;3.26;94.41
25944;BME280;13742;49.306;8.636;2024-01-30T03:42:21;101916.10;;;3.25;94.34
25944;BME280;13742;49.306;8.636;2024-01-30T03:43:21;101922.18;;;3.25;94.53
25944;BME280;13742;49.306;8.636;2024-01-30T03:44:21;101918.75;;;3.24;94.58
25944;BME280;13742;49.306;8.636;2024-01-30T03:45:21;101915.27;;;3.23;94.65
25944;BME280;13742;49.306;8.636;2024-01-30T03:46:21;101919.40;;;3.24;94.60
25944;BME280;13742;49.306;8.636;2024-01-30T03:47:21;101921.39;;;3.24;94.66
25944;BME280;13742;49.306;8.636;2024-01-30T03:48:21;101920.92;;;3.21;94.72
25944;BME280;13742;49.306;8.636;2024-01-30T03:49:21;101920.40;;;3.22;94.72
25944;BME280;13742;49.306;8.636;2024-01-30T03:50:21;101923.27;;;3.23;94.77
25944;BME280;13742;49.306;8.636;2024-01-30T03:51:21;101924.31;;;3.22;94.74
25944;BME280;13742;49.306;8.636;2024-01-30T03:52:21;101920.50;;;3.20;94.74
25944;BME280;13742;49.306;8.636;2024-01-30T03:53:21;101920.54;;;3.20;94.78
25944;BME280;13742;49.306;8.636;2024-01-30T03:54:21;101922.41;;;3.19;94.86
25944;BME280;13742;49.306;8.636;2024-01-30T03:55:21;101922.73;;;3.19;94.86
25944;BME280;13742;49.306;8.636;2024-01-30T03:56:21;101923.26;;;3.18;94.75
25944;BME280;13742;49.306;8.636;2024-01-30T03:57:21;101923.75;;;3.18;94.91
25944;BME280;13742;49.306;8.636;2024-01-30T03:58:21;101923.49;;;3.17;94.90
25944;BME280;13742;49.306;8.636;2024-01-30T03:59:24;101918.88;;;3.17;94.72
25944;BME280;13742;49.306;8.636;2024-01-30T04:00:21;101917.27;;;3.16;94.86
25944;BME280;13742;49.306;8.636;2024-01-30T04:01:21;101918.05;;;3.15;94.93
25944;BME280;13742;49.306;8.636;2024-01-30T04:02:21;101919.27;;;3.15;94.89
25944;BME280;13742;49.306;8.636;2024-01-30T04:03:21;101917.59;;;3.14;94.87
25944;BME280;13742;49.306;8.636;2024-01-30T04:04:21;101922.77;;;3.14;94.87
25944;BME280;13742;49.306;8.636;2024-01-30T04:05:21;101922.80;;;3.13;94.82
25944;BME280;13742;49.306;8.636;2024-01-30T04:06:21;101918.51;;;3.13;94.86
25944;BME280;13742;49.306;8.636;2024-01-30T04:07:21;101921.56;;;3.12;95.04
25944;BME280;13742;49.306;8.636;2024-01-30T04:08:21;101919.11;;;3.11;95.05
25944;BME280;13742;49.306;8.636;2024-01-30T04:09:21;101920.17;;;3.12;95.08
25944;BME280;13742;49.306;8.636;2024-01-30T04:10:21;101919.09;;;3.10;94.93
25944;BME280;13742;49.306;8.636;2024-01-30T04:11:21;101919.22;;;3.10;95.04
25944;BME280;13742;49.306;8.636;2024-01-30T04:12:20;101921.05;;;3.10;95.04
25944;BME280;13742;49.306;8.636;2024-01-30T04:13:20;101916.84;;;3.09;94.85
25944;BME280;13742;49.306;8.636;2024-01-30T04:14:20;101918.10;;;3.09;94.88
25944;BME280;13742;49.306;8.636;2024-01-30T04:15:21;101916.88;;;3.09;95.09
25944;BME280;13742;49.306;8.636;2024-01-30T04:16:22;101916.39;;;3.09;95.05
25944;BME280;13742;49.306;8.636;2024-01-30T04:17:20;101913.61;;;3.08;95.00
25944;BME280;13742;49.306;8.636;2024-01-30T04:18:21;101912.00;;;3.07;94.92
25944;BME280;13742;49.306;8.636;2024-01-30T04:19:21;101915.48;;;3.07;95.22
25944;BME280;13742;49.306;8.636;2024-01-30T04:20:20;101914.42;;;3.08;95.22
25944;BME280;13742;49.306;8.636;2024-01-30T04:21:21;101913.92;;;3.07;95.08
25944;BME280;13742;49.306;8.636;2024-01-30T04:22:20;101912.55;;;3.05;94.98
25944;BME280;13742;49.306;8.636;2024-01-30T04:23:20;101913.77;;;3.04;95.03
25944;BME280;13742;49.306;8.636;2024-01-30T04:24:20;101915.61;;;3.05;95.30
25944;BME280;13742;49.306;8.636;2024-01-30T04:25:20;101917.11;;;3.04;95.30
25944;BME280;13742;49.306;8.636;2024-01-30T04:26:20;101916.86;;;3.03;95.26
25944;BME280;13742;49.306;8.636;2024-01-30T04:27:20;101915.44;;;3.03;95.46
25944;BME280;13742;49.306;8.636;2024-01-30T04:28:20;101920.64;;;3.02;95.54
25944;BME280;13742;49.306;8.636;2024-01-30T04:29:22;101917.22;;;3.02;95.67
25944;BME280;13742;49.306;8.636;2024-01-30T04:30:21;101917.19;;;3.03;95.60
25944;BME280;13742;49.306;8.636;2024-01-30T04:31:20;101915.84;;;3.03;95.51
25944;BME280;13742;49.306;8.636;2024-01-30T04:32:20;101920.52;;;3.01;95.68
25944;BME280;13742;49.306;8.636;2024-01-30T04:33:20;101920.44;;;3.02;95.66
25944;BME280;13742;49.306;8.636;2024-01-30T04:34:20;101922.14;;;3.01;95.70
25944;BME280;13742;49.306;8.636;2024-01-30T04:35:23;101921.48;;;3.01;95.47
25944;BME280;13742;49.306;8.636;2024-01-30T04:36:20;101919.15;;;3.00;95.63
25944;BME280;13742;49.306;8.636;2024-01-30T04:37:20;101921.09;;;2.98;95.70
25944;BME280;13742;49.306;8.636;2024-01-30T04:38:21;101917.61;;;2.97;95.63
25944;BME280;13742;49.306;8.636;2024-01-30T04:39:20;101921.91;;;2.98;95.80
25944;BME280;13742;49.306;8.636;2024-01-30T04:40:21;101920.39;;;2.98;95.75
25944;BME280;13742;49.306;8.636;2024-01-30T04:41:20;101918.63;;;2.97;95.69
25944;BME280;13742;49.306;8.636;2024-01-30T04:42:21;101919.95;;;2.98;95.91
25944;BME280;13742;49.306;8.636;2024-01-30T04:43:21;101918.83;;;2.96;95.84
25944;BME280;13742;49.306;8.636;2024-01-30T04:44:21;101922.53;;;2.96;96.07
25944;BME280;13742;49.306;8.636;2024-01-30T04:45:21;101922.50;;;2.97;96.16
25944;BME280;13742;49.306;8.636;2024-01-30T04:46:20;101923.73;;;2.97;95.97
25944;BME280;13742;49.306;8.636;2024-01-30T04:47:21;101922.50;;;2.97;96.06
25944;BME280;13742;49.306;8.636;2024-01-30T04:48:20;101921.69;;;2.97;96.07
25944;BME280;13742;49.306;8.636;2024-01-30T04:49:20;101919.13;;;2.98;96.17
25944;BME280;13742;49.306;8.636;2024-01-30T04:50:20;101920.88;;;2.98;96.06
25944;BME280;13742;49.306;8.636;2024-01-30T04:51:20;101920.81;;;2.99;95.93
25944;BME280;13742;49.306;8.636;2024-01-30T04:52:20;101920.88;;;2.98;95.77
25944;BME280;13742;49.306;8.636;2024-01-30T04:53:20;101919.75;;;2.99;95.66
25944;BME280;13742;49.306;8.636;2024-01-30T04:54:20;101917.86;;;2.97;95.68
25944;BME280;13742;49.306;8.636;2024-01-30T04:55:20;101918.95;;;2.97;95.76
25944;BME280;13742;49.306;8.636;2024-01-30T04:56:20;101920.31;;;2.97;95.74
25944;BME280;13742;49.306;8.636;2024-01-30T04:57:20;101921.53;;;2.98;95.68
25944;BME280;13742;49.306;8.636;2024-01-30T04:58:20;101917.19;;;2.96;95.61
25944;BME280;13742;49.306;8.636;2024-01-30T04:59:20;101919.89;;;2.97;95.69
25944;BME280;13742;49.306;8.636;2024-01-30T05:00:20;101920.63;;;2.97;95.75
25944;BME280;13742;49.306;8.636;2024-01-30T05:01:20;101919.39;;;2.95;95.69
25944;BME280;13742;49.306;8.636;2024-01-30T05:02:21;101922.89;;;2.95;95.67
25944;BME280;13742;49.306;8.636;2024-01-30T05:03:22;101921.28;;;2.93;95.85
25944;BME280;13742;49.306;8.636;2024-01-30T05:04:22;101924.17;;;2.93;95.77
25944;BME280;13742;49.306;8.636;2024-01-30T05:05:21;101925.70;;;2.95;95.93
25944;BME280;13742;49.306;8.636;2024-01-30T05:06:24;101924.59;;;2.94;95.96
25944;BME280;13742;49.306;8.636;2024-01-30T05:07:20;101926.08;;;2.95;96.35
25944;BME280;13742;49.306;8.636;2024-01-30T05:08:20;101926.02;;;2.97;96.48
25944;BME280;13742;49.306;8.636;2024-01-30T05:09:21;101934.50;;;2.97;96.41
25944;BME280;13742;49.306;8.636;2024-01-30T05:10:20;101930.16;;;2.99;96.42
25944;BME280;13742;49.306;8.636;2024-01-30T05:11:20;101928.50;;;3.01;96.43
25944;BME280;13742;49.306;8.636;2024-01-30T05:12:20;101928.38;;;3.00;96.23
25944;BME280;13742;49.306;8.636;2024-01-30T05:13:20;101930.95;;;3.01;96.26
25944;BME280;13742;49.306;8.636;2024-01-30T05:14:20;101930.34;;;3.02;96.23
25944;BME280;13742;49.306;8.636;2024-01-30T05:15:20;101931.83;;;3.03;96.19
25944;BME280;13742;49.306;8.636;2024-01-30T05:16:20;101931.91;;;3.02;96.17
25944;BME280;13742;49.306;8.636;2024-01-30T05:17:20;101934.19;;;3.02;96.04